Time;durP1;ratioP1;P1;durP2;ratioP2;P2;SDS_P1;SDS_P2;PMS_P1;PMS_P2;Temp;Humidity;BMP_temperature;BMP_pressure;BME280_temperature;BME280_humidity;BME280_pressure;Samples;Min_cycle;Max_cycle;Signal;HPM_P1;HPM_P2
2022/10/22 00:01:14;;;;;;;19.20;15.20;;;15.30;99.90;;;;;;5072980;28;20236;-56
2022/10/22 00:03:42;;;;;;;16.37;14.63;;;15.30;99.90;;;;;;5073548;28;20691;-55
2022/10/22 00:06:10;;;;;;;15.50;13.87;;;15.20;99.90;;;;;;5073266;28;20238;-56
2022/10/22 00:08:38;;;;;;;17.10;15.30;;;15.30;99.90;;;;;;5073247;28;20224;-56
2022/10/22 00:11:12;;;;;;;18.60;15.13;;;15.30;99.90;;;;;;5073611;28;20687;-56
2022/10/22 00:13:40;;;;;;;18.73;14.77;;;15.30;99.90;;;;;;5073052;28;20228;-55
2022/10/22 00:16:09;;;;;;;19.90;15.07;;;15.20;99.90;;;;;;5074644;28;20234;-55
2022/10/22 00:18:39;;;;;;;15.90;13.27;;;15.20;99.90;;;;;;5077298;28;20227;-55
2022/10/22 00:21:08;;;;;;;16.43;14.63;;;15.20;99.90;;;;;;5073120;28;20240;-56
2022/10/22 00:23:36;;;;;;;17.60;14.37;;;15.10;99.90;;;;;;5073094;28;20233;-55
2022/10/22 00:26:04;;;;;;;17.47;15.47;;;15.00;99.90;;;;;;5073321;28;20587;-56
2022/10/22 00:28:32;;;;;;;15.80;14.17;;;15.00;99.90;;;;;;5073186;28;20274;-55
2022/10/22 00:31:01;;;;;;;16.00;14.27;;;15.00;99.90;;;;;;5071891;28;20718;-55
2022/10/22 00:33:30;;;;;;;16.30;14.57;;;14.90;99.90;;;;;;5072821;28;20215;-56
2022/10/22 00:35:59;;;;;;;17.90;15.13;;;14.90;99.90;;;;;;5072964;28;20662;-56
2022/10/22 00:38:28;;;;;;;17.30;15.00;;;14.80;99.90;;;;;;5073051;28;20721;-56
2022/10/22 00:40:56;;;;;;;18.23;14.43;;;14.80;99.90;;;;;;5072850;28;20231;-55
2022/10/22 00:43:24;;;;;;;15.23;13.57;;;14.70;99.90;;;;;;5073159;28;20226;-55
2022/10/22 00:45:52;;;;;;;16.33;14.00;;;14.80;99.90;;;;;;5072905;28;20227;-56
2022/10/22 00:48:23;;;;;;;16.57;14.87;;;14.80;99.90;;;;;;5078934;28;20231;-55
2022/10/22 00:50:55;;;;;;;19.43;13.87;;;14.70;99.90;;;;;;5073033;28;20242;-55
2022/10/22 00:53:29;;;;;;;15.37;13.10;;;14.70;99.90;;;;;;5072814;28;20276;-56
2022/10/22 00:55:58;;;;;;;13.53;12.10;;;14.80;99.90;;;;;;5071972;28;20230;-55
2022/10/22 00:58:29;;;;;;;13.87;12.43;;;14.90;99.90;;;;;;5072563;28;20231;-55
2022/10/22 01:00:57;;;;;;;14.53;12.90;;;14.80;99.90;;;;;;5072157;28;20714;-56
2022/10/22 01:03:25;;;;;;;15.57;12.57;;;14.80;99.90;;;;;;5072551;28;20721;-56
2022/10/22 01:05:56;;;;;;;14.80;12.53;;;14.70;99.90;;;;;;5072928;28;20234;-55
2022/10/22 01:08:32;;;;;;;15.20;13.50;;;14.70;99.90;;;;;;5072488;28;20690;-55
2022/10/22 01:11:10;;;;;;;16.03;14.33;;;14.60;99.90;;;;;;5072865;28;20223;-55
2022/10/22 01:13:53;;;;;;;16.97;14.23;;;14.40;99.90;;;;;;5072354;28;20238;-55
2022/10/22 01:16:29;;;;;;;15.10;13.03;;;14.40;99.90;;;;;;5075622;28;20750;-55
2022/10/22 01:19:04;;;;;;;16.23;13.77;;;14.40;99.90;;;;;;5076183;28;20831;-55
2022/10/22 01:21:36;;;;;;;17.30;14.53;;;14.40;99.90;;;;;;5076220;28;20222;-55
2022/10/22 01:24:33;;;;;;;18.10;14.03;;;14.40;99.90;;;;;;5076710;28;20322;-55
2022/10/22 01:27:13;;;;;;;17.57;14.63;;;14.50;99.90;;;;;;5056792;28;20234;-55
2022/10/22 01:29:45;;;;;;;17.20;13.87;;;14.50;99.90;;;;;;5062739;28;20276;-56
2022/10/22 01:32:16;;;;;;;18.43;14.93;;;14.50;99.90;;;;;;5076140;28;20383;-56
2022/10/22 01:34:49;;;;;;;16.27;14.63;;;14.50;99.90;;;;;;5076287;28;20227;-56
2022/10/22 01:37:21;;;;;;;15.87;14.17;;;14.40;99.90;;;;;;5072964;28;20239;-56
2022/10/22 01:39:51;;;;;;;17.37;15.27;;;14.30;99.90;;;;;;5076362;28;20227;-56
2022/10/22 01:42:19;;;;;;;17.60;15.13;;;14.20;99.90;;;;;;5076412;28;20242;-55
2022/10/22 01:44:49;;;;;;;19.17;16.37;;;14.20;99.90;;;;;;5059658;28;20223;-55
2022/10/22 01:47:25;;;;;;;19.40;16.23;;;14.20;99.90;;;;;;5072629;28;20223;-55
2022/10/22 01:50:20;;;;;;;19.07;17.07;;;14.10;99.90;;;;;;5075818;28;20223;-55
2022/10/22 01:53:01;;;;;;;18.23;15.67;;;14.10;99.90;;;;;;5075879;28;20234;-55
2022/10/22 01:55:35;;;;;;;19.03;15.13;;;14.10;99.90;;;;;;5075421;28;20357;-55
2022/10/22 01:58:16;;;;;;;19.77;16.13;;;14.20;99.90;;;;;;5076263;28;20578;-55
2022/10/22 02:00:51;;;;;;;19.47;16.67;;;14.20;99.90;;;;;;5075456;28;20238;-56
2022/10/22 02:03:23;;;;;;;21.40;16.47;;;14.10;99.90;;;;;;5076100;28;20248;-55
2022/10/22 02:05:53;;;;;;;18.07;16.17;;;14.00;99.90;;;;;;5075975;28;20740;-55
2022/10/22 02:08:24;;;;;;;19.73;17.30;;;14.00;99.90;;;;;;5075998;28;20257;-56
2022/10/22 02:10:54;;;;;;;18.00;15.60;;;14.00;99.90;;;;;;5075695;28;20268;-55
2022/10/22 02:13:28;;;;;;;19.70;16.73;;;14.00;99.90;;;;;;5075607;28;20233;-55
2022/10/22 02:15:58;;;;;;;20.03;16.40;;;14.00;99.90;;;;;;5075901;28;20219;-55
2022/10/22 02:18:29;;;;;;;18.53;16.50;;;14.00;99.90;;;;;;5075557;28;20245;-55
2022/10/22 02:21:00;;;;;;;21.83;18.73;;;14.00;99.90;;;;;;5075415;28;20284;-55
2022/10/22 02:23:29;;;;;;;20.20;17.53;;;13.90;99.90;;;;;;5075441;28;20246;-55
2022/10/22 02:26:06;;;;;;;18.13;16.20;;;14.00;99.90;;;;;;5074797;28;20222;-55
2022/10/22 02:28:42;;;;;;;22.77;18.03;;;14.00;99.90;;;;;;5075531;28;20222;-56
2022/10/22 02:31:16;;;;;;;20.17;17.83;;;14.00;99.90;;;;;;5074869;28;20276;-55
2022/10/22 02:33:47;;;;;;;19.93;17.83;;;14.00;99.90;;;;;;5075400;28;20235;-55
2022/10/22 02:36:17;;;;;;;22.63;17.97;;;13.90;99.90;;;;;;5075044;28;20644;-55
2022/10/22 02:38:47;;;;;;;20.93;18.27;;;13.90;99.90;;;;;;5075370;28;21268;-55
2022/10/22 02:41:16;;;;;;;22.00;17.37;;;13.80;99.90;;;;;;5074996;28;20284;-55
2022/10/22 02:43:49;;;;;;;21.90;18.23;;;13.80;99.90;;;;;;5075245;28;20276;-55
2022/10/22 02:46:18;;;;;;;20.57;16.83;;;13.80;99.90;;;;;;5076842;28;20231;-55
2022/10/22 02:48:46;;;;;;;21.27;16.60;;;13.80;99.90;;;;;;5077906;28;20235;-56
2022/10/22 02:51:14;;;;;;;20.60;17.00;;;14.00;99.90;;;;;;5067494;28;20650;-55
2022/10/22 02:53:42;;;;;;;21.07;17.93;;;14.00;99.90;;;;;;5074789;28;20244;-55
2022/10/22 02:56:11;;;;;;;20.63;18.43;;;13.80;99.90;;;;;;5074924;28;20227;-56
2022/10/22 02:58:39;;;;;;;20.73;17.57;;;13.80;99.90;;;;;;5074957;28;20677;-56
2022/10/22 03:01:07;;;;;;;21.20;17.30;;;13.70;99.90;;;;;;5074303;28;20308;-56
2022/10/22 03:03:40;;;;;;;20.20;18.10;;;13.70;99.90;;;;;;5074858;28;20238;-55
2022/10/22 03:06:09;;;;;;;20.07;17.07;;;13.60;99.90;;;;;;5074619;28;20226;-56
2022/10/22 03:08:37;;;;;;;24.93;18.00;;;13.60;99.90;;;;;;5074774;28;20226;-56
2022/10/22 03:11:05;;;;;;;27.07;21.17;;;13.70;99.90;;;;;;5074537;28;20227;-55
2022/10/22 03:13:33;;;;;;;22.07;19.13;;;13.70;99.90;;;;;;5074720;28;20678;-55
2022/10/22 03:16:01;;;;;;;24.13;19.40;;;13.80;99.90;;;;;;5073833;28;20281;-55
2022/10/22 03:18:29;;;;;;;24.33;20.10;;;13.70;99.90;;;;;;5079947;28;20631;-55
2022/10/22 03:21:11;;;;;;;22.47;18.53;;;13.70;99.90;;;;;;5074012;28;20234;-56
2022/10/22 03:23:42;;;;;;;22.53;18.57;;;13.70;99.90;;;;;;5074019;28;20233;-55
2022/10/22 03:26:12;;;;;;;21.60;18.43;;;13.70;99.90;;;;;;5054578;28;20250;-56
2022/10/22 03:28:41;;;;;;;20.97;18.67;;;13.70;99.90;;;;;;5054034;28;20228;-56
2022/10/22 03:31:09;;;;;;;26.03;20.57;;;13.60;99.90;;;;;;5053793;28;20232;-55
2022/10/22 03:33:38;;;;;;;20.33;17.60;;;13.60;99.90;;;;;;5054256;28;20555;-55
2022/10/22 03:36:08;;;;;;;24.33;19.77;;;13.70;99.90;;;;;;5053945;28;20240;-55
2022/10/22 03:38:38;;;;;;;24.20;19.77;;;13.70;99.90;;;;;;5054162;28;20733;-54
2022/10/22 03:41:07;;;;;;;22.93;19.03;;;13.70;99.90;;;;;;5083117;28;20694;-55
2022/10/22 03:43:37;;;;;;;22.33;19.93;;;13.80;99.90;;;;;;5074027;28;20235;-55
2022/10/22 03:46:05;;;;;;;23.40;19.17;;;13.60;99.90;;;;;;5057436;28;20220;-55
2022/10/22 03:48:33;;;;;;;23.97;20.10;;;13.60;99.90;;;;;;5078732;28;20777;-55
2022/10/22 03:51:01;;;;;;;25.17;21.20;;;13.50;99.90;;;;;;5073567;28;20628;-55
2022/10/22 03:53:31;;;;;;;24.63;20.17;;;13.50;99.90;;;;;;5073592;28;20227;-55
2022/10/22 03:55:59;;;;;;;24.97;19.57;;;13.50;99.90;;;;;;5073897;28;20239;-56
2022/10/22 03:58:27;;;;;;;25.10;21.23;;;13.50;99.90;;;;;;5073719;28;20237;-56
2022/10/22 04:00:55;;;;;;;24.67;21.43;;;13.60;99.90;;;;;;5073199;28;20241;-55
2022/10/22 04:03:23;;;;;;;24.10;19.70;;;13.50;99.90;;;;;;5073736;28;20242;-55
2022/10/22 04:05:51;;;;;;;22.77;19.87;;;13.50;99.90;;;;;;5073762;28;20242;-55
2022/10/22 04:08:19;;;;;;;24.43;18.73;;;13.40;99.90;;;;;;5074029;28;20226;-55
2022/10/22 04:10:52;;;;;;;26.73;21.63;;;13.50;99.90;;;;;;5073288;28;20227;-55
2022/10/22 04:13:20;;;;;;;29.37;21.70;;;13.40;99.90;;;;;;5073371;28;20210;-55
2022/10/22 04:15:48;;;;;;;25.30;21.67;;;13.30;99.90;;;;;;5072498;28;20235;-55
2022/10/22 04:18:16;;;;;;;25.10;21.33;;;13.40;99.90;;;;;;5079384;28;20229;-55
2022/10/22 04:20:44;;;;;;;23.47;20.40;;;13.30;99.90;;;;;;5072796;28;20332;-54
2022/10/22 04:23:12;;;;;;;26.87;22.30;;;13.30;99.90;;;;;;5073212;28;20268;-55
2022/10/22 04:25:40;;;;;;;24.83;20.20;;;13.30;99.90;;;;;;5073204;28;20255;-55
2022/10/22 04:28:10;;;;;;;23.27;19.97;;;13.50;99.90;;;;;;5073049;28;20240;-55
2022/10/22 04:30:38;;;;;;;19.40;17.33;;;13.40;99.90;;;;;;5072475;28;20705;-55
2022/10/22 04:33:06;;;;;;;20.10;17.43;;;13.60;99.90;;;;;;5073032;28;20265;-55
2022/10/22 04:35:38;;;;;;;19.30;16.67;;;13.60;99.90;;;;;;5072917;28;20251;-55
2022/10/22 04:38:06;;;;;;;23.07;16.43;;;13.60;99.90;;;;;;5072921;28;20234;-56
2022/10/22 04:40:34;;;;;;;20.13;16.97;;;13.70;99.90;;;;;;5072705;28;20231;-55
2022/10/22 04:43:02;;;;;;;22.67;17.37;;;13.60;99.90;;;;;;5078434;28;20233;-55
2022/10/22 04:45:32;;;;;;;20.83;18.13;;;13.40;99.90;;;;;;5085052;28;20693;-55
2022/10/22 04:48:00;;;;;;;20.03;17.63;;;13.30;99.90;;;;;;5081922;28;20226;-55
2022/10/22 04:50:29;;;;;;;19.07;17.07;;;13.20;99.90;;;;;;5078210;28;20692;-55
2022/10/22 04:52:57;;;;;;;19.23;17.20;;;13.20;99.90;;;;;;5071202;28;20313;-55
2022/10/22 04:55:25;;;;;;;22.37;18.93;;;13.40;99.90;;;;;;5068477;28;20628;-55
2022/10/22 04:57:53;;;;;;;21.67;19.37;;;13.30;99.90;;;;;;5073044;28;20296;-54
2022/10/22 05:00:21;;;;;;;20.67;18.27;;;13.20;99.90;;;;;;5083007;28;20222;-55
2022/10/22 05:02:51;;;;;;;22.47;19.17;;;13.20;99.90;;;;;;5082250;28;20226;-55
2022/10/22 05:05:19;;;;;;;25.27;20.17;;;13.30;99.90;;;;;;5081206;28;20272;-54
2022/10/22 05:07:47;;;;;;;22.47;19.53;;;13.20;99.90;;;;;;5082719;28;20238;-56
2022/10/22 05:10:15;;;;;;;22.00;18.80;;;13.20;99.90;;;;;;5083094;28;20313;-55
2022/10/22 05:12:43;;;;;;;24.17;19.83;;;13.20;99.90;;;;;;5080972;28;20298;-55
2022/10/22 05:15:11;;;;;;;22.20;19.80;;;13.10;99.90;;;;;;5082549;28;20230;-55
2022/10/22 05:17:39;;;;;;;24.73;20.37;;;13.20;99.90;;;;;;5083327;28;20685;-55
2022/10/22 05:20:10;;;;;;;23.07;19.50;;;13.30;99.90;;;;;;5079534;28;20225;-56
2022/10/22 05:22:38;;;;;;;25.00;20.13;;;13.30;99.90;;;;;;5073601;28;20223;-56
2022/10/22 05:25:07;;;;;;;24.43;19.93;;;13.20;99.90;;;;;;5075448;28;20280;-55
2022/10/22 05:27:35;;;;;;;20.97;18.77;;;13.10;99.90;;;;;;5052254;28;20253;-55
2022/10/22 05:30:05;;;;;;;22.10;17.70;;;13.10;99.90;;;;;;5052319;28;20242;-55
2022/10/22 05:32:35;;;;;;;22.40;19.93;;;13.10;99.90;;;;;;5051806;28;20252;-55
2022/10/22 05:35:03;;;;;;;23.93;20.63;;;13.20;99.90;;;;;;5052604;28;20274;-55
2022/10/22 05:37:32;;;;;;;26.27;21.50;;;13.20;99.90;;;;;;5083075;28;20782;-55
2022/10/22 05:40:00;;;;;;;23.27;18.93;;;13.10;99.90;;;;;;5071051;28;20297;-55
2022/10/22 05:42:48;;;;;;;21.07;18.77;;;13.10;99.90;;;;;;5052278;28;20704;-55
2022/10/22 05:45:16;;;;;;;22.20;19.83;;;13.10;99.90;;;;;;5052265;28;20319;-55
2022/10/22 05:47:44;;;;;;;22.00;19.10;;;13.00;99.90;;;;;;5053863;28;20235;-55
2022/10/22 05:50:12;;;;;;;20.63;18.40;;;13.00;99.90;;;;;;5076065;28;20237;-55
2022/10/22 05:52:42;;;;;;;21.43;18.87;;;13.00;99.90;;;;;;5079835;28;20218;-54
2022/10/22 05:55:10;;;;;;;24.20;19.93;;;13.00;99.90;;;;;;5080009;28;20225;-55
2022/10/22 05:57:40;;;;;;;21.60;19.30;;;13.00;99.90;;;;;;5081905;28;20256;-55
2022/10/22 06:00:09;;;;;;;23.23;19.63;;;12.90;99.90;;;;;;5080151;28;20219;-55
2022/10/22 06:02:42;;;;;;;24.50;21.03;;;13.00;99.90;;;;;;5071589;28;20234;-55
2022/10/22 06:05:10;;;;;;;22.97;19.57;;;13.00;99.90;;;;;;5074444;28;20268;-55
2022/10/22 06:07:38;;;;;;;23.97;19.23;;;13.00;99.90;;;;;;5075688;28;20276;-55
2022/10/22 06:10:11;;;;;;;22.60;19.40;;;12.90;99.90;;;;;;5075717;28;20562;-55
2022/10/22 06:12:39;;;;;;;22.93;19.70;;;12.90;99.90;;;;;;5075553;28;20272;-55
2022/10/22 06:15:09;;;;;;;22.00;18.97;;;12.90;99.90;;;;;;5075557;28;20234;-55
2022/10/22 06:17:37;;;;;;;24.50;19.57;;;12.90;99.90;;;;;;5078430;28;20278;-55
2022/10/22 06:20:06;;;;;;;21.87;19.57;;;13.00;99.90;;;;;;5083525;28;20226;-55
2022/10/22 06:22:34;;;;;;;20.83;18.47;;;12.90;99.90;;;;;;5082078;28;20230;-55
2022/10/22 06:25:03;;;;;;;21.47;18.93;;;12.90;99.90;;;;;;5085422;28;20274;-55
2022/10/22 06:27:32;;;;;;;22.20;19.23;;;12.90;99.90;;;;;;5085162;28;20233;-55
2022/10/22 06:30:01;;;;;;;20.93;18.43;;;12.90;99.90;;;;;;5085068;28;20285;-55
2022/10/22 06:32:29;;;;;;;21.40;18.87;;;12.80;99.90;;;;;;5084167;28;20283;-55
2022/10/22 06:34:57;;;;;;;23.80;18.97;;;12.80;99.90;;;;;;5081610;28;20225;-55
2022/10/22 06:37:25;;;;;;;22.77;18.50;;;13.00;99.90;;;;;;5082776;28;20299;-56
2022/10/22 06:39:53;;;;;;;22.27;18.67;;;12.90;99.90;;;;;;5086510;28;20226;-56
2022/10/22 06:42:21;;;;;;;24.00;20.13;;;12.90;99.90;;;;;;5085245;28;20220;-55
2022/10/22 06:44:50;;;;;;;22.73;20.20;;;12.90;99.90;;;;;;5096000;28;20261;-55
2022/10/22 06:47:18;;;;;;;22.87;20.10;;;12.90;99.90;;;;;;5055334;28;20713;-55
2022/10/22 06:49:48;;;;;;;24.27;20.23;;;12.90;99.90;;;;;;5067175;28;20225;-55
2022/10/22 06:52:16;;;;;;;21.47;19.00;;;12.90;99.90;;;;;;5074973;28;20715;-55
2022/10/22 06:54:44;;;;;;;24.27;20.03;;;12.90;99.90;;;;;;5085606;28;21656;-54
2022/10/22 06:57:13;;;;;;;23.67;20.40;;;12.90;99.90;;;;;;5086471;28;20321;-55
2022/10/22 06:59:40;;;;;;;21.47;19.20;;;12.90;99.90;;;;;;5083912;28;20306;-55
2022/10/22 07:02:10;;;;;;;25.13;21.03;;;12.90;99.90;;;;;;5085013;28;20242;-55
2022/10/22 07:04:38;;;;;;;22.23;19.70;;;12.90;99.90;;;;;;5084706;28;20745;-55
2022/10/22 07:07:06;;;;;;;22.47;19.73;;;12.90;99.90;;;;;;5081644;28;20632;-55
2022/10/22 07:09:34;;;;;;;23.90;18.83;;;13.00;99.90;;;;;;5076792;28;20253;-55
2022/10/22 07:12:02;;;;;;;22.97;18.60;;;13.10;99.90;;;;;;5074599;28;20628;-55
2022/10/22 07:14:31;;;;;;;22.80;20.40;;;13.40;99.90;;;;;;5073893;28;20210;-55
2022/10/22 07:16:59;;;;;;;23.90;20.20;;;13.50;99.90;;;;;;5073880;28;20238;-55
2022/10/22 07:19:30;;;;;;;26.60;20.43;;;13.60;99.90;;;;;;5069956;28;20236;-55
2022/10/22 07:21:58;;;;;;;25.77;21.27;;;13.60;99.90;;;;;;5073071;28;20226;-55
2022/10/22 07:24:27;;;;;;;27.53;21.00;;;13.80;99.90;;;;;;5082603;28;20237;-55
2022/10/22 07:26:56;;;;;;;23.93;19.77;;;14.00;99.90;;;;;;5073805;28;20226;-56
2022/10/22 07:29:25;;;;;;;23.50;20.17;;;14.10;99.90;;;;;;5075603;28;20284;-55
2022/10/22 07:31:55;;;;;;;23.93;20.47;;;14.20;99.90;;;;;;5054001;28;20793;-55
2022/10/22 07:34:24;;;;;;;26.57;20.63;;;14.30;99.90;;;;;;5036674;28;20228;-56
2022/10/22 07:36:56;;;;;;;26.23;19.27;;;14.30;99.90;;;;;;5075156;28;20636;-55
2022/10/22 07:39:27;;;;;;;26.03;19.70;;;14.50;99.90;;;;;;5082137;28;20239;-56
2022/10/22 07:41:57;;;;;;;25.70;20.47;;;14.60;99.90;;;;;;5062325;28;20272;-56
2022/10/22 07:44:26;;;;;;;22.27;18.93;;;14.70;99.90;;;;;;5059985;28;20716;-55
2022/10/22 07:46:55;;;;;;;28.60;20.47;;;14.80;99.90;;;;;;5076614;28;20237;-55
2022/10/22 07:49:25;;;;;;;21.13;18.70;;;14.80;99.90;;;;;;5072665;28;20242;-55
2022/10/22 07:51:57;;;;;;;28.27;20.60;;;14.90;99.90;;;;;;5073523;28;20223;-55
2022/10/22 07:54:26;;;;;;;24.70;18.57;;;15.00;99.90;;;;;;5077567;28;20321;-55
2022/10/22 07:56:57;;;;;;;20.93;18.37;;;15.00;99.90;;;;;;5078030;28;20730;-56
2022/10/22 07:59:27;;;;;;;21.40;17.93;;;15.10;99.90;;;;;;5082615;28;20241;-55
2022/10/22 08:01:55;;;;;;;19.13;17.17;;;15.20;99.90;;;;;;5079255;28;20231;-55
2022/10/22 08:04:23;;;;;;;21.27;17.50;;;15.30;99.90;;;;;;5083548;28;20230;-56
2022/10/22 08:06:51;;;;;;;19.53;16.63;;;15.50;99.90;;;;;;5069245;28;20277;-55
2022/10/22 08:09:20;;;;;;;17.50;15.57;;;15.70;99.90;;;;;;5079901;28;20227;-55
2022/10/22 08:11:48;;;;;;;19.97;15.37;;;15.90;99.90;;;;;;5093486;28;20226;-54
2022/10/22 08:14:17;;;;;;;16.87;15.07;;;16.00;99.90;;;;;;5087558;28;20238;-56
2022/10/22 08:16:45;;;;;;;17.53;14.37;;;16.00;99.90;;;;;;5083274;28;20219;-55
2022/10/22 08:19:17;;;;;;;21.33;13.37;;;16.00;99.90;;;;;;5089948;28;20262;-56
2022/10/22 08:21:45;;;;;;;15.97;13.50;;;16.00;99.90;;;;;;5073069;28;20813;-55
2022/10/22 08:24:14;;;;;;;16.50;12.87;;;16.10;99.90;;;;;;5073076;28;20254;-56
2022/10/22 08:26:44;;;;;;;14.33;12.23;;;16.30;99.90;;;;;;5071791;28;20235;-56
2022/10/22 08:29:12;;;;;;;14.47;12.97;;;16.50;99.90;;;;;;5068454;28;20273;-55
2022/10/22 08:31:40;;;;;;;15.40;11.80;;;16.60;99.90;;;;;;5070984;28;20235;-55
2022/10/22 08:34:08;;;;;;;14.07;12.30;;;16.80;99.90;;;;;;5062420;28;20223;-55
2022/10/22 08:36:36;;;;;;;12.83;10.73;;;17.00;99.90;;;;;;5075535;28;20245;-55
2022/10/22 08:39:05;;;;;;;12.37;10.87;;;17.20;99.90;;;;;;5073591;28;20250;-56
2022/10/22 08:41:40;;;;;;;14.27;10.60;;;17.40;99.90;;;;;;5075430;28;20226;-56
2022/10/22 08:44:42;;;;;;;12.53;10.10;;;17.50;99.90;;;;;;5079062;28;20582;-56
2022/10/22 08:47:25;;;;;;;11.47;10.23;;;17.70;99.90;;;;;;5069784;28;20312;-56
2022/10/22 08:49:55;;;;;;;13.83;10.07;;;17.80;99.90;;;;;;5073006;28;20243;-56
2022/10/22 08:52:24;;;;;;;10.13;8.63;;;17.80;99.90;;;;;;5068298;28;20323;-56
2022/10/22 08:54:54;;;;;;;11.23;8.53;;;17.70;99.90;;;;;;5063823;28;20223;-56
2022/10/22 08:57:43;;;;;;;10.57;8.67;;;17.90;99.90;;;;;;5062035;28;20594;-55
2022/10/22 09:00:20;;;;;;;10.77;8.70;;;18.10;99.90;;;;;;5064495;28;20683;-56
2022/10/22 09:03:02;;;;;;;12.27;9.07;;;18.10;99.90;;;;;;5071927;28;20234;-56
2022/10/22 09:05:39;;;;;;;9.57;8.43;;;18.30;99.90;;;;;;5072517;28;20590;-56
2022/10/22 09:08:10;;;;;;;10.93;8.67;;;18.50;99.90;;;;;;5075241;28;20264;-57
2022/10/22 09:10:43;;;;;;;11.10;9.10;;;18.50;99.90;;;;;;5081076;28;20224;-57
2022/10/22 09:13:15;;;;;;;14.60;9.40;;;18.60;99.90;;;;;;5061331;28;20220;-57
2022/10/22 09:15:46;;;;;;;10.83;8.40;;;18.60;99.90;;;;;;5069415;28;20637;-55
2022/10/22 09:18:28;;;;;;;12.80;9.23;;;18.80;99.90;;;;;;5069498;28;20223;-56
2022/10/22 09:21:02;;;;;;;9.47;8.47;;;18.90;99.90;;;;;;5072600;28;20738;-56
2022/10/22 09:23:37;;;;;;;11.43;8.03;;;19.00;99.90;;;;;;5072150;28;20227;-57
2022/10/22 09:26:13;;;;;;;9.00;8.10;;;19.20;99.90;;;;;;5072612;28;20668;-57
2022/10/22 09:28:42;;;;;;;9.07;7.40;;;19.20;99.90;;;;;;5072283;28;20229;-57
2022/10/22 09:31:14;;;;;;;13.13;8.03;;;19.20;99.90;;;;;;5072092;28;20241;-56
2022/10/22 09:33:44;;;;;;;10.57;6.93;;;19.30;99.90;;;;;;5072478;28;20263;-57
2022/10/22 09:36:17;;;;;;;11.27;8.00;;;19.20;99.90;;;;;;5064560;28;20247;-57
2022/10/22 09:38:47;;;;;;;10.13;7.10;;;19.10;99.90;;;;;;5067013;28;20232;-56
2022/10/22 09:41:15;;;;;;;11.83;7.23;;;19.20;99.90;;;;;;5057128;28;20229;-55
2022/10/22 09:43:47;;;;;;;9.87;7.27;;;19.30;99.90;;;;;;5057125;28;20284;-57
2022/10/22 09:46:18;;;;;;;9.37;6.77;;;19.40;99.90;;;;;;5068824;28;20221;-56
2022/10/22 09:48:50;;;;;;;8.03;5.87;;;19.70;99.90;;;;;;5076007;28;20220;-57
2022/10/22 09:51:21;;;;;;;9.43;6.40;;;20.00;99.90;;;;;;5069273;28;20237;-57
2022/10/22 09:53:56;;;;;;;10.33;6.00;;;20.20;99.90;;;;;;5075885;28;20565;-57
2022/10/22 09:56:27;;;;;;;9.47;6.00;;;20.40;99.90;;;;;;5075448;28;20696;-57
2022/10/22 09:58:57;;;;;;;11.67;6.13;;;20.50;99.90;;;;;;5075853;28;20227;-57
2022/10/22 10:01:29;;;;;;;10.97;5.60;;;20.70;99.90;;;;;;5075423;28;20246;-57
2022/10/22 10:04:03;;;;;;;7.80;5.33;;;20.70;99.90;;;;;;5056889;28;20245;-57
2022/10/22 10:06:39;;;;;;;9.53;5.23;;;20.90;99.90;;;;;;5067938;28;20237;-57
2022/10/22 10:09:15;;;;;;;9.20;4.70;;;20.90;99.90;;;;;;5077440;28;20269;-57
2022/10/22 10:11:48;;;;;;;5.87;4.60;;;20.90;99.90;;;;;;5072528;28;20234;-57
2022/10/22 10:14:21;;;;;;;7.60;4.90;;;21.10;99.90;;;;;;5065177;28;20713;-57
2022/10/22 10:17:04;;;;;;;8.80;4.90;;;21.10;99.90;;;;;;5055649;28;20690;-57
2022/10/22 10:19:46;;;;;;;7.43;5.00;;;21.00;99.90;;;;;;5061463;28;20263;-57
2022/10/22 10:22:26;;;;;;;5.83;4.10;;;21.20;99.90;;;;;;5067455;28;20233;-57
2022/10/22 10:25:12;;;;;;;9.10;4.20;;;21.20;99.90;;;;;;5072218;28;20235;-57
2022/10/22 10:27:42;;;;;;;9.17;4.23;;;21.40;99.90;;;;;;5075589;28;20226;-57
2022/10/22 10:30:15;;;;;;;7.17;4.70;;;21.50;99.90;;;;;;5075340;28;20709;-57
2022/10/22 10:33:02;;;;;;;8.23;4.70;;;21.60;99.90;;;;;;5054499;28;20245;-56
2022/10/22 10:35:39;;;;;;;5.83;3.87;;;21.70;99.90;;;;;;5037366;28;20228;-57
2022/10/22 10:38:21;;;;;;;8.37;4.43;;;21.90;99.90;;;;;;5046427;28;20276;-57
2022/10/22 10:41:00;;;;;;;5.23;3.47;;;21.80;99.90;;;;;;5050470;28;20260;-57
2022/10/22 10:43:37;;;;;;;5.57;4.40;;;21.80;99.90;;;;;;5054009;28;20238;-57
2022/10/22 10:46:13;;;;;;;7.50;4.03;;;21.80;99.90;;;;;;5052073;28;20321;-56
2022/10/22 10:48:50;;;;;;;10.43;4.40;;;21.30;99.90;;;;;;5034917;28;20232;-57
2022/10/22 10:51:37;;;;;;;5.93;4.00;;;21.00;99.90;;;;;;5056990;28;20233;-57
2022/10/22 10:54:24;;;;;;;6.30;4.57;;;20.90;99.90;;;;;;5054970;28;20245;-57
2022/10/22 10:56:55;;;;;;;7.83;4.10;;;21.00;99.90;;;;;;5054565;28;20223;-56
2022/10/22 10:59:41;;;;;;;6.20;3.33;;;20.90;99.90;;;;;;5049979;28;20235;-57
2022/10/22 11:02:36;;;;;;;5.80;3.37;;;21.00;99.90;;;;;;5052575;28;20705;-57
2022/10/22 11:05:26;;;;;;;6.93;3.33;;;20.90;99.90;;;;;;5043214;28;20242;-57
2022/10/22 11:07:59;;;;;;;6.13;3.00;;;20.90;99.90;;;;;;5054134;28;20229;-57
2022/10/22 11:10:32;;;;;;;7.27;3.53;;;21.00;99.90;;;;;;5053682;28;20270;-57
2022/10/22 11:13:06;;;;;;;8.90;3.43;;;21.10;99.90;;;;;;5054839;28;20234;-57
2022/10/22 11:15:37;;;;;;;5.53;3.60;;;21.30;99.90;;;;;;5051896;28;20241;-57
2022/10/22 11:18:16;;;;;;;6.57;3.23;;;21.40;99.90;;;;;;5051005;28;20281;-57
2022/10/22 11:20:52;;;;;;;5.67;3.20;;;21.80;99.90;;;;;;5061785;28;20240;-57
2022/10/22 11:23:27;;;;;;;5.57;3.20;;;21.70;99.90;;;;;;5043164;28;20716;-57
2022/10/22 11:25:55;;;;;;;6.73;3.07;;;21.70;99.90;;;;;;5054251;28;20626;-57
2022/10/22 11:28:27;;;;;;;6.70;3.40;;;21.70;99.90;;;;;;5054516;28;20709;-57
2022/10/22 11:31:02;;;;;;;7.47;3.00;;;21.40;99.90;;;;;;5060104;28;20251;-57
2022/10/22 11:33:37;;;;;;;6.90;3.30;;;21.10;99.90;;;;;;5074357;28;20240;-57
2022/10/22 11:36:08;;;;;;;6.07;3.00;;;21.00;99.90;;;;;;5074149;28;20609;-57
2022/10/22 11:38:37;;;;;;;7.77;3.20;;;20.70;99.90;;;;;;5074251;28;20227;-57
2022/10/22 11:41:10;;;;;;;6.97;3.13;;;20.50;99.90;;;;;;5073426;28;20215;-57
2022/10/22 11:43:57;;;;;;;6.20;3.30;;;20.40;99.90;;;;;;5073824;28;20235;-57
2022/10/22 11:46:34;;;;;;;9.60;3.97;;;20.20;99.90;;;;;;5073914;28;20258;-55
2022/10/22 11:49:15;;;;;;;5.27;3.50;;;20.10;99.90;;;;;;5075515;28;20226;-57
2022/10/22 11:51:45;;;;;;;4.83;3.63;;;19.90;99.90;;;;;;5084521;28;20230;-57
2022/10/22 11:54:42;;;;;;;6.43;3.43;;;19.70;99.90;;;;;;5073377;28;20275;-57
2022/10/22 11:57:23;;;;;;;6.87;3.70;;;19.60;99.90;;;;;;5070704;28;20726;-57
2022/10/22 11:59:54;;;;;;;6.20;3.43;;;19.50;99.90;;;;;;5087863;28;20225;-57
2022/10/22 12:02:39;;;;;;;7.00;4.00;;;19.60;99.90;;;;;;5058408;28;20631;-57
2022/10/22 12:05:35;;;;;;;7.97;4.07;;;19.60;99.90;;;;;;5060530;28;20276;-57
2022/10/22 12:08:25;;;;;;;7.50;3.97;;;19.70;99.90;;;;;;5035978;28;20711;-57
2022/10/22 12:11:15;;;;;;;8.23;3.90;;;19.70;99.90;;;;;;5066906;28;20276;-57
2022/10/22 12:14:19;;;;;;;8.87;3.40;;;19.60;99.90;;;;;;5055327;28;20585;-57
2022/10/22 12:16:51;;;;;;;5.07;3.20;;;19.60;99.90;;;;;;5055487;28;20307;-57
2022/10/22 12:19:29;;;;;;;5.90;3.13;;;19.70;99.90;;;;;;5059227;28;20235;-57
2022/10/22 12:22:00;;;;;;;7.83;3.67;;;19.60;99.90;;;;;;5055066;28;20226;-57
2022/10/22 12:24:35;;;;;;;6.23;3.60;;;19.60;99.90;;;;;;5052047;28;20226;-57
2022/10/22 12:27:03;;;;;;;7.97;3.30;;;19.60;99.90;;;;;;5061663;28;20717;-57
2022/10/22 12:29:32;;;;;;;5.43;3.30;;;19.70;99.90;;;;;;5061071;28;20226;-57
2022/10/22 12:32:04;;;;;;;7.20;3.27;;;19.70;99.90;;;;;;5062177;28;20268;-57
2022/10/22 12:34:32;;;;;;;7.37;3.50;;;19.70;99.90;;;;;;5061659;28;20237;-57
2022/10/22 12:37:04;;;;;;;6.53;3.70;;;19.60;99.90;;;;;;5062799;28;20246;-57
2022/10/22 12:39:34;;;;;;;7.00;3.60;;;19.50;99.90;;;;;;5061043;28;20685;-57
2022/10/22 12:42:05;;;;;;;6.00;3.50;;;19.50;99.90;;;;;;5047782;28;20757;-57
2022/10/22 12:44:33;;;;;;;8.20;4.73;;;19.30;99.90;;;;;;5052839;28;20231;-57
2022/10/22 12:47:01;;;;;;;12.07;6.40;;;19.30;99.90;;;;;;5053106;28;20238;-57
2022/10/22 12:49:38;;;;;;;7.63;6.13;;;19.10;99.90;;;;;;5058348;28;20758;-57
2022/10/22 12:52:12;;;;;;;7.60;5.30;;;19.10;99.90;;;;;;5060276;28;20594;-57
2022/10/22 12:54:44;;;;;;;9.43;6.37;;;19.20;99.90;;;;;;5058121;28;20312;-57
2022/10/22 12:57:15;;;;;;;10.13;6.67;;;19.20;99.90;;;;;;5052656;28;20351;-57